sensor_id;sensor_type;location;lat;lon;timestamp;P1;durP1;ratioP1;P2;durP2;ratioP2
41470;SDS011;27211;51.220;5.308;2022-11-18T14:05:16;1999.90;;;999.90;;
41470;SDS011;27211;51.220;5.308;2022-11-18T14:11:08;1999.90;;;999.90;;
41470;SDS011;27211;51.220;5.308;2022-11-18T14:19:41;1999.90;;;999.90;;
41470;SDS011;27211;51.220;5.308;2022-11-18T14:25:33;1999.90;;;999.90;;
41470;SDS011;27211;51.220;5.308;2022-11-18T14:30:41;1999.90;;;999.90;;
41470;SDS011;27211;51.220;5.308;2022-11-18T14:33:20;1999.90;;;999.90;;
41470;SDS011;27211;51.220;5.308;2022-11-18T14:41:11;1999.90;;;999.90;;
41470;SDS011;27211;51.220;5.308;2022-11-18T14:43:38;1999.90;;;999.90;;
41470;SDS011;27211;51.220;5.308;2022-11-18T14:46:05;1999.90;;;999.90;;
41470;SDS011;27211;51.220;5.308;2022-11-18T14:48:42;1999.90;;;999.90;;
41470;SDS011;27211;51.220;5.308;2022-11-18T14:51:13;1999.90;;;999.90;;
41470;SDS011;27211;51.220;5.308;2022-11-18T14:53:40;1999.90;;;999.90;;
41470;SDS011;27211;51.220;5.308;2022-11-18T14:56:11;1999.90;;;999.90;;
41470;SDS011;27211;51.220;5.308;2022-11-18T14:58:40;1999.90;;;999.90;;
41470;SDS011;27211;51.220;5.308;2022-11-18T15:01:08;1999.90;;;999.90;;
41470;SDS011;27211;51.220;5.308;2022-11-18T15:03:35;1999.90;;;999.90;;
41470;SDS011;27211;51.220;5.308;2022-11-18T15:06:01;1999.90;;;999.90;;
41470;SDS011;27211;51.220;5.308;2022-11-18T15:08:27;1999.90;;;999.90;;
41470;SDS011;27211;51.220;5.308;2022-11-18T15:10:52;1999.90;;;999.90;;
41470;SDS011;27211;51.220;5.308;2022-11-18T15:13:18;1999.90;;;999.90;;
41470;SDS011;27211;51.220;5.308;2022-11-18T15:15:44;1999.90;;;999.90;;
41470;SDS011;27211;51.220;5.308;2022-11-18T15:18:09;1999.90;;;999.90;;
41470;SDS011;27211;51.220;5.308;2022-11-18T15:20:35;1999.90;;;999.90;;
41470;SDS011;27211;51.220;5.308;2022-11-18T15:23:01;1999.90;;;999.90;;
41470;SDS011;27211;51.220;5.308;2022-11-18T15:25:27;109.45;;;102.00;;
41470;SDS011;27211;51.220;5.308;2022-11-18T15:27:53;82.43;;;77.63;;
41470;SDS011;27211;51.220;5.308;2022-11-18T15:30:18;82.60;;;77.32;;
41470;SDS011;27211;51.220;5.308;2022-11-18T15:32:44;69.63;;;65.40;;
41470;SDS011;27211;51.220;5.308;2022-11-18T15:35:11;60.30;;;56.90;;
41470;SDS011;27211;51.220;5.308;2022-11-18T15:37:37;62.83;;;59.17;;
41470;SDS011;27211;51.220;5.308;2022-11-18T15:40:03;62.13;;;58.80;;
41470;SDS011;27211;51.220;5.308;2022-11-18T15:42:30;61.00;;;57.22;;
41470;SDS011;27211;51.220;5.308;2022-11-18T15:44:55;66.43;;;62.35;;
41470;SDS011;27211;51.220;5.308;2022-11-18T15:47:21;66.38;;;62.53;;
41470;SDS011;27211;51.220;5.308;2022-11-18T15:49:47;58.88;;;55.47;;
41470;SDS011;27211;51.220;5.308;2022-11-18T15:52:13;64.15;;;60.25;;
41470;SDS011;27211;51.220;5.308;2022-11-18T15:54:38;67.00;;;63.05;;
41470;SDS011;27211;51.220;5.308;2022-11-18T15:57:04;65.40;;;61.47;;
41470;SDS011;27211;51.220;5.308;2022-11-18T15:59:31;64.35;;;60.63;;
41470;SDS011;27211;51.220;5.308;2022-11-18T16:01:57;57.40;;;53.88;;
41470;SDS011;27211;51.220;5.308;2022-11-18T16:04:22;58.78;;;55.42;;
41470;SDS011;27211;51.220;5.308;2022-11-18T16:06:49;68.10;;;64.00;;
41470;SDS011;27211;51.220;5.308;2022-11-18T16:09:14;65.03;;;61.47;;
41470;SDS011;27211;51.220;5.308;2022-11-18T16:11:41;62.28;;;58.65;;
41470;SDS011;27211;51.220;5.308;2022-11-18T16:14:25;59.97;;;56.28;;
41470;SDS011;27211;51.220;5.308;2022-11-18T16:16:52;59.38;;;55.80;;
41470;SDS011;27211;51.220;5.308;2022-11-18T16:19:21;58.75;;;55.08;;
41470;SDS011;27211;51.220;5.308;2022-11-18T16:21:49;63.70;;;59.90;;
41470;SDS011;27211;51.220;5.308;2022-11-18T16:24:20;67.18;;;63.25;;
41470;SDS011;27211;51.220;5.308;2022-11-18T16:26:47;73.90;;;69.70;;
41470;SDS011;27211;51.220;5.308;2022-11-18T16:29:13;70.65;;;66.53;;
41470;SDS011;27211;51.220;5.308;2022-11-18T16:31:40;67.95;;;63.88;;
41470;SDS011;27211;51.220;5.308;2022-11-18T16:34:18;66.38;;;62.75;;
41470;SDS011;27211;51.220;5.308;2022-11-18T16:36:50;68.65;;;64.28;;
41470;SDS011;27211;51.220;5.308;2022-11-18T16:39:20;73.13;;;68.88;;
41470;SDS011;27211;51.220;5.308;2022-11-18T16:41:50;65.73;;;61.77;;
41470;SDS011;27211;51.220;5.308;2022-11-18T16:44:21;57.33;;;53.92;;
41470;SDS011;27211;51.220;5.308;2022-11-18T16:46:48;59.88;;;56.35;;
41470;SDS011;27211;51.220;5.308;2022-11-18T16:49:16;63.08;;;59.30;;
41470;SDS011;27211;51.220;5.308;2022-11-18T16:51:44;62.60;;;58.47;;
41470;SDS011;27211;51.220;5.308;2022-11-18T16:54:18;73.47;;;69.00;;
41470;SDS011;27211;51.220;5.308;2022-11-18T16:56:47;74.13;;;69.47;;
41470;SDS011;27211;51.220;5.308;2022-11-18T16:59:14;70.07;;;65.75;;
41470;SDS011;27211;51.220;5.308;2022-11-18T17:01:46;67.40;;;63.45;;
41470;SDS011;27211;51.220;5.308;2022-11-18T17:04:12;65.85;;;61.83;;
41470;SDS011;27211;51.220;5.308;2022-11-18T17:06:39;61.28;;;57.35;;
41470;SDS011;27211;51.220;5.308;2022-11-18T17:09:06;58.60;;;54.83;;
41470;SDS011;27211;51.220;5.308;2022-11-18T17:11:36;57.58;;;53.88;;
41470;SDS011;27211;51.220;5.308;2022-11-18T17:14:02;57.25;;;54.05;;
41470;SDS011;27211;51.220;5.308;2022-11-18T17:16:28;58.65;;;55.20;;
41470;SDS011;27211;51.220;5.308;2022-11-18T17:18:55;57.95;;;54.53;;
41470;SDS011;27211;51.220;5.308;2022-11-18T17:21:22;58.42;;;54.85;;
41470;SDS011;27211;51.220;5.308;2022-11-18T17:23:49;57.40;;;54.15;;
41470;SDS011;27211;51.220;5.308;2022-11-18T17:26:17;59.75;;;56.28;;
41470;SDS011;27211;51.220;5.308;2022-11-18T17:28:45;60.40;;;56.55;;
41470;SDS011;27211;51.220;5.308;2022-11-18T17:31:12;60.33;;;56.58;;
41470;SDS011;27211;51.220;5.308;2022-11-18T17:33:39;58.85;;;55.28;;
41470;SDS011;27211;51.220;5.308;2022-11-18T17:36:16;61.03;;;57.53;;
41470;SDS011;27211;51.220;5.308;2022-11-18T17:38:48;69.90;;;66.03;;
41470;SDS011;27211;51.220;5.308;2022-11-18T17:41:16;79.65;;;75.20;;
41470;SDS011;27211;51.220;5.308;2022-11-18T17:44:02;72.50;;;68.38;;
41470;SDS011;27211;51.220;5.308;2022-11-18T17:46:29;75.13;;;71.05;;
41470;SDS011;27211;51.220;5.308;2022-11-18T17:48:56;77.22;;;72.60;;
41470;SDS011;27211;51.220;5.308;2022-11-18T17:51:24;76.30;;;71.88;;
41470;SDS011;27211;51.220;5.308;2022-11-18T17:53:51;75.70;;;71.47;;
41470;SDS011;27211;51.220;5.308;2022-11-18T17:56:17;75.60;;;71.28;;
41470;SDS011;27211;51.220;5.308;2022-11-18T17:58:43;80.40;;;75.78;;
41470;SDS011;27211;51.220;5.308;2022-11-18T18:01:10;77.47;;;73.18;;
41470;SDS011;27211;51.220;5.308;2022-11-18T18:03:38;69.72;;;65.75;;
41470;SDS011;27211;51.220;5.308;2022-11-18T18:06:05;68.82;;;64.68;;
41470;SDS011;27211;51.220;5.308;2022-11-18T18:08:32;63.95;;;60.20;;
41470;SDS011;27211;51.220;5.308;2022-11-18T18:11:02;66.85;;;62.67;;
41470;SDS011;27211;51.220;5.308;2022-11-18T18:13:28;69.20;;;65.38;;
41470;SDS011;27211;51.220;5.308;2022-11-18T18:16:15;67.82;;;63.70;;
41470;SDS011;27211;51.220;5.308;2022-11-18T18:18:41;69.53;;;65.32;;
41470;SDS011;27211;51.220;5.308;2022-11-18T18:21:06;83.65;;;78.95;;
41470;SDS011;27211;51.220;5.308;2022-11-18T18:23:34;64.80;;;61.00;;
41470;SDS011;27211;51.220;5.308;2022-11-18T18:26:01;65.35;;;61.33;;
41470;SDS011;27211;51.220;5.308;2022-11-18T18:28:32;68.30;;;64.27;;
41470;SDS011;27211;51.220;5.308;2022-11-18T18:30:59;65.07;;;61.08;;
41470;SDS011;27211;51.220;5.308;2022-11-18T18:33:26;68.57;;;64.38;;
41470;SDS011;27211;51.220;5.308;2022-11-18T18:35:55;65.70;;;61.72;;
41470;SDS011;27211;51.220;5.308;2022-11-18T18:38:22;67.88;;;63.45;;
41470;SDS011;27211;51.220;5.308;2022-11-18T18:40:48;71.22;;;66.63;;
41470;SDS011;27211;51.220;5.308;2022-11-18T18:43:14;70.00;;;65.80;;
41470;SDS011;27211;51.220;5.308;2022-11-18T18:45:40;71.35;;;67.07;;
41470;SDS011;27211;51.220;5.308;2022-11-18T18:48:24;72.70;;;68.50;;
41470;SDS011;27211;51.220;5.308;2022-11-18T18:50:50;79.80;;;75.00;;
41470;SDS011;27211;51.220;5.308;2022-11-18T18:53:16;86.60;;;81.53;;
41470;SDS011;27211;51.220;5.308;2022-11-18T18:55:41;75.68;;;71.20;;
41470;SDS011;27211;51.220;5.308;2022-11-18T18:58:08;73.38;;;68.93;;
41470;SDS011;27211;51.220;5.308;2022-11-18T19:00:34;68.97;;;64.78;;
41470;SDS011;27211;51.220;5.308;2022-11-18T19:02:59;70.63;;;66.30;;
41470;SDS011;27211;51.220;5.308;2022-11-18T19:05:29;84.60;;;79.70;;
41470;SDS011;27211;51.220;5.308;2022-11-18T19:07:54;84.35;;;79.28;;
41470;SDS011;27211;51.220;5.308;2022-11-18T19:10:20;77.97;;;73.18;;
41470;SDS011;27211;51.220;5.308;2022-11-18T19:12:46;76.05;;;71.45;;
41470;SDS011;27211;51.220;5.308;2022-11-18T19:15:16;73.95;;;69.43;;
41470;SDS011;27211;51.220;5.308;2022-11-18T19:17:44;75.55;;;70.88;;
41470;SDS011;27211;51.220;5.308;2022-11-18T19:20:11;75.18;;;70.78;;
41470;SDS011;27211;51.220;5.308;2022-11-18T19:22:57;69.50;;;65.18;;
41470;SDS011;27211;51.220;5.308;2022-11-18T19:25:24;71.43;;;66.95;;
41470;SDS011;27211;51.220;5.308;2022-11-18T19:27:50;71.57;;;67.07;;
41470;SDS011;27211;51.220;5.308;2022-11-18T19:30:16;74.15;;;69.45;;
41470;SDS011;27211;51.220;5.308;2022-11-18T19:32:41;70.85;;;66.53;;
41470;SDS011;27211;51.220;5.308;2022-11-18T19:35:08;69.82;;;65.53;;
41470;SDS011;27211;51.220;5.308;2022-11-18T19:37:34;72.45;;;68.10;;
41470;SDS011;27211;51.220;5.308;2022-11-18T19:40:00;71.07;;;66.65;;
41470;SDS011;27211;51.220;5.308;2022-11-18T19:42:27;75.22;;;70.60;;
41470;SDS011;27211;51.220;5.308;2022-11-18T19:44:54;75.60;;;70.93;;
41470;SDS011;27211;51.220;5.308;2022-11-18T19:47:20;75.43;;;70.82;;
41470;SDS011;27211;51.220;5.308;2022-11-18T19:49:45;75.07;;;70.25;;
41470;SDS011;27211;51.220;5.308;2022-11-18T19:52:11;76.45;;;71.85;;
41470;SDS011;27211;51.220;5.308;2022-11-18T19:54:40;77.10;;;72.10;;
41470;SDS011;27211;51.220;5.308;2022-11-18T19:57:06;81.97;;;76.70;;
41470;SDS011;27211;51.220;5.308;2022-11-18T19:59:33;89.88;;;84.28;;
41470;SDS011;27211;51.220;5.308;2022-11-18T20:01:59;90.35;;;84.63;;
41470;SDS011;27211;51.220;5.308;2022-11-18T20:04:24;80.38;;;75.18;;
41470;SDS011;27211;51.220;5.308;2022-11-18T20:06:50;82.63;;;77.57;;
41470;SDS011;27211;51.220;5.308;2022-11-18T20:09:16;84.13;;;78.72;;
41470;SDS011;27211;51.220;5.308;2022-11-18T20:11:42;82.85;;;77.43;;
41470;SDS011;27211;51.220;5.308;2022-11-18T20:14:09;87.82;;;81.93;;
41470;SDS011;27211;51.220;5.308;2022-11-18T20:16:36;96.00;;;89.90;;
41470;SDS011;27211;51.220;5.308;2022-11-18T20:19:03;87.45;;;81.55;;
41470;SDS011;27211;51.220;5.308;2022-11-18T20:21:31;86.72;;;80.95;;
41470;SDS011;27211;51.220;5.308;2022-11-18T20:23:59;87.13;;;81.38;;
41470;SDS011;27211;51.220;5.308;2022-11-18T20:26:27;89.30;;;83.32;;
41470;SDS011;27211;51.220;5.308;2022-11-18T20:28:55;83.13;;;77.57;;
41470;SDS011;27211;51.220;5.308;2022-11-18T20:31:21;79.82;;;74.68;;
41470;SDS011;27211;51.220;5.308;2022-11-18T20:33:48;77.00;;;72.00;;
41470;SDS011;27211;51.220;5.308;2022-11-18T20:36:17;79.70;;;74.45;;
41470;SDS011;27211;51.220;5.308;2022-11-18T20:38:47;83.70;;;78.00;;
41470;SDS011;27211;51.220;5.308;2022-11-18T20:41:14;84.18;;;78.78;;
41470;SDS011;27211;51.220;5.308;2022-11-18T20:43:41;88.95;;;82.82;;
41470;SDS011;27211;51.220;5.308;2022-11-18T20:46:08;82.35;;;76.93;;
41470;SDS011;27211;51.220;5.308;2022-11-18T20:48:35;87.95;;;82.25;;
41470;SDS011;27211;51.220;5.308;2022-11-18T20:51:04;87.35;;;81.50;;
41470;SDS011;27211;51.220;5.308;2022-11-18T20:53:32;89.53;;;83.63;;
41470;SDS011;27211;51.220;5.308;2022-11-18T20:56:04;81.22;;;75.85;;
41470;SDS011;27211;51.220;5.308;2022-11-18T20:58:30;82.30;;;76.43;;
41470;SDS011;27211;51.220;5.308;2022-11-18T21:00:57;83.32;;;77.43;;
41470;SDS011;27211;51.220;5.308;2022-11-18T21:03:38;87.60;;;81.28;;
41470;SDS011;27211;51.220;5.308;2022-11-18T21:06:11;81.07;;;75.38;;
41470;SDS011;27211;51.220;5.308;2022-11-18T21:08:37;74.50;;;69.45;;
41470;SDS011;27211;51.220;5.308;2022-11-18T21:11:05;75.53;;;70.18;;
41470;SDS011;27211;51.220;5.308;2022-11-18T21:13:33;74.88;;;69.72;;
41470;SDS011;27211;51.220;5.308;2022-11-18T21:16:18;75.32;;;70.10;;
41470;SDS011;27211;51.220;5.308;2022-11-18T21:18:44;73.20;;;67.90;;
41470;SDS011;27211;51.220;5.308;2022-11-18T21:21:11;75.00;;;69.68;;
41470;SDS011;27211;51.220;5.308;2022-11-18T21:23:55;73.88;;;68.97;;
41470;SDS011;27211;51.220;5.308;2022-11-18T21:26:22;70.55;;;65.60;;
41470;SDS011;27211;51.220;5.308;2022-11-18T21:28:49;69.88;;;65.03;;
41470;SDS011;27211;51.220;5.308;2022-11-18T21:31:18;74.93;;;69.65;;
41470;SDS011;27211;51.220;5.308;2022-11-18T21:33:46;75.43;;;70.28;;
41470;SDS011;27211;51.220;5.308;2022-11-18T21:36:13;72.40;;;67.25;;
41470;SDS011;27211;51.220;5.308;2022-11-18T21:38:39;70.97;;;66.20;;
41470;SDS011;27211;51.220;5.308;2022-11-18T21:41:05;70.32;;;65.43;;
41470;SDS011;27211;51.220;5.308;2022-11-18T21:43:32;72.85;;;67.72;;
41470;SDS011;27211;51.220;5.308;2022-11-18T21:46:02;70.15;;;65.53;;
41470;SDS011;27211;51.220;5.308;2022-11-18T21:48:30;73.38;;;68.13;;
41470;SDS011;27211;51.220;5.308;2022-11-18T21:50:59;76.28;;;70.97;;
41470;SDS011;27211;51.220;5.308;2022-11-18T21:53:26;76.50;;;71.47;;
41470;SDS011;27211;51.220;5.308;2022-11-18T21:55:58;77.60;;;72.28;;
41470;SDS011;27211;51.220;5.308;2022-11-18T21:58:25;75.18;;;69.97;;
41470;SDS011;27211;51.220;5.308;2022-11-18T22:00:51;75.60;;;70.25;;
41470;SDS011;27211;51.220;5.308;2022-11-18T22:03:16;74.28;;;69.13;;
41470;SDS011;27211;51.220;5.308;2022-11-18T22:05:42;74.97;;;69.75;;
41470;SDS011;27211;51.220;5.308;2022-11-18T22:08:08;73.32;;;67.90;;
41470;SDS011;27211;51.220;5.308;2022-11-18T22:10:38;76.80;;;71.32;;
41470;SDS011;27211;51.220;5.308;2022-11-18T22:13:09;74.78;;;69.22;;
41470;SDS011;27211;51.220;5.308;2022-11-18T22:15:35;74.72;;;69.32;;
41470;SDS011;27211;51.220;5.308;2022-11-18T22:18:01;75.75;;;70.35;;
41470;SDS011;27211;51.220;5.308;2022-11-18T22:20:27;74.57;;;69.13;;
41470;SDS011;27211;51.220;5.308;2022-11-18T22:22:53;75.10;;;69.78;;
41470;SDS011;27211;51.220;5.308;2022-11-18T22:25:18;75.47;;;70.10;;
41470;SDS011;27211;51.220;5.308;2022-11-18T22:27:44;77.53;;;72.13;;
41470;SDS011;27211;51.220;5.308;2022-11-18T22:30:10;82.05;;;76.22;;
41470;SDS011;27211;51.220;5.308;2022-11-18T22:32:36;78.55;;;73.25;;
41470;SDS011;27211;51.220;5.308;2022-11-18T22:35:02;79.07;;;73.50;;
41470;SDS011;27211;51.220;5.308;2022-11-18T22:37:28;79.28;;;73.60;;
41470;SDS011;27211;51.220;5.308;2022-11-18T22:39:54;82.53;;;76.90;;
41470;SDS011;27211;51.220;5.308;2022-11-18T22:42:19;80.53;;;74.47;;
41470;SDS011;27211;51.220;5.308;2022-11-18T22:45:04;76.80;;;71.50;;
41470;SDS011;27211;51.220;5.308;2022-11-18T22:47:30;80.25;;;74.57;;
41470;SDS011;27211;51.220;5.308;2022-11-18T22:49:56;82.25;;;76.55;;
41470;SDS011;27211;51.220;5.308;2022-11-18T22:52:22;82.90;;;76.95;;
41470;SDS011;27211;51.220;5.308;2022-11-18T22:54:48;92.72;;;85.85;;
41470;SDS011;27211;51.220;5.308;2022-11-18T22:57:13;78.45;;;72.93;;
41470;SDS011;27211;51.220;5.308;2022-11-18T22:59:39;77.65;;;71.60;;
41470;SDS011;27211;51.220;5.308;2022-11-18T23:02:05;76.00;;;70.40;;
41470;SDS011;27211;51.220;5.308;2022-11-18T23:04:31;73.47;;;67.93;;
41470;SDS011;27211;51.220;5.308;2022-11-18T23:06:57;70.35;;;65.00;;
41470;SDS011;27211;51.220;5.308;2022-11-18T23:09:23;70.18;;;64.63;;
41470;SDS011;27211;51.220;5.308;2022-11-18T23:11:49;70.80;;;65.60;;
41470;SDS011;27211;51.220;5.308;2022-11-18T23:14:33;70.18;;;64.93;;
41470;SDS011;27211;51.220;5.308;2022-11-18T23:16:59;74.07;;;68.63;;
41470;SDS011;27211;51.220;5.308;2022-11-18T23:19:25;72.70;;;67.45;;
41470;SDS011;27211;51.220;5.308;2022-11-18T23:21:51;75.88;;;70.13;;
41470;SDS011;27211;51.220;5.308;2022-11-18T23:24:17;75.28;;;69.75;;
41470;SDS011;27211;51.220;5.308;2022-11-18T23:26:43;75.28;;;69.95;;
41470;SDS011;27211;51.220;5.308;2022-11-18T23:29:10;74.20;;;68.63;;
41470;SDS011;27211;51.220;5.308;2022-11-18T23:31:38;75.68;;;69.95;;
41470;SDS011;27211;51.220;5.308;2022-11-18T23:34:08;76.60;;;70.47;;
41470;SDS011;27211;51.220;5.308;2022-11-18T23:36:37;75.97;;;70.00;;
41470;SDS011;27211;51.220;5.308;2022-11-18T23:39:03;79.68;;;73.53;;
41470;SDS011;27211;51.220;5.308;2022-11-18T23:41:29;79.75;;;73.65;;
41470;SDS011;27211;51.220;5.308;2022-11-18T23:43:55;73.35;;;67.88;;
41470;SDS011;27211;51.220;5.308;2022-11-18T23:46:21;78.65;;;72.65;;
41470;SDS011;27211;51.220;5.308;2022-11-18T23:48:48;75.35;;;69.93;;
41470;SDS011;27211;51.220;5.308;2022-11-18T23:51:15;75.38;;;69.75;;
41470;SDS011;27211;51.220;5.308;2022-11-18T23:53:42;71.70;;;66.20;;
41470;SDS011;27211;51.220;5.308;2022-11-18T23:56:15;73.53;;;67.80;;
41470;SDS011;27211;51.220;5.308;2022-11-18T23:58:45;75.22;;;69.53;;
